Kezdőlap
METAR-TAF:

METAR-TAF

Repülőterek :

Padang, Indonézia

földrajzi szélesség: 00-47-12S, földrajzi hosszúság: 100-16-50E, magasság: 5 m

Jelenlegi meteorológiai megfigyelések

A jelentés 48 perccel ezelõtt készült, 01:30 UTC
Északi szél 3 kt
Hőmérséklet 26°C
Páratartalom 89%
Légköri nyomás 1010 hPa
Látótávolság 10 km, vagy több
Szakadozott felhőzet 2000 lábon

METAR: WIEE 220130Z 36003KT 9999 BKN020 26/24 Q1010 NOSIG

Idő: 09:18 (02:18 UTC)

Előrejelzés

A jelentés 3 órával és 18 perccel ezelõtt készült, 23:00 UTC
Az előrejelzés 22-én 00 óra UTC és 22-én 24 óra UTC között érvényes
Nyugati szél 7 kt
Látótávolság 10 km, vagy több
Szórványos felhőzet 2000 lábon

TAF: WIEE 212300Z 2200/2224 26007KT 9999 SCT020

Meteorológiai megfigyelések és előrejelzések több, mint 4000 repülőtéren (METAR és TAF jelentéseket).

A térképen piros és sárga pontok jelzik az elérhető meteorológiai állomásokat.

Mozgassa az egeret a pont fölött, hogy megjelenjen az állomás neve.

Azután kattintson az időjárási megfigyelések és előrejelzések megtekintéséhez.

A térkép megváltoztatása: kattintson a fekete keresztel jelölt zöld gombra ráközelítéshez, a vonallal jelölt zöld gombra távolításhoz, vagy a zöld nyilakra a szomszédos térképek eléréséhez.


METAR-TAF: